sensor_id;sensor_type;location;lat;lon;timestamp;pressure;altitude;pressure_sealevel;temperature;humidity
5883;BME280;2967;51.488;6.618;2022-08-19T00:04:40;101019.78;;;22.22;100.00
5883;BME280;2967;51.488;6.618;2022-08-19T00:09:44;101025.66;;;22.34;100.00
5883;BME280;2967;51.488;6.618;2022-08-19T00:14:48;100991.09;;;21.81;100.00
5883;BME280;2967;51.488;6.618;2022-08-19T00:19:50;101029.56;;;22.31;100.00
5883;BME280;2967;51.488;6.618;2022-08-19T00:24:53;101030.41;;;22.40;100.00
5883;BME280;2967;51.488;6.618;2022-08-19T00:29:59;101024.47;;;22.12;100.00
5883;BME280;2967;51.488;6.618;2022-08-19T00:35:05;100982.03;;;21.90;100.00
5883;BME280;2967;51.488;6.618;2022-08-19T00:40:11;101014.66;;;21.87;100.00
5883;BME280;2967;51.488;6.618;2022-08-19T00:45:23;101006.44;;;21.89;100.00
5883;BME280;2967;51.488;6.618;2022-08-19T00:50:26;101005.81;;;20.61;100.00
5883;BME280;2967;51.488;6.618;2022-08-19T00:55:30;101010.97;;;21.88;100.00
5883;BME280;2967;51.488;6.618;2022-08-19T01:00:36;100982.31;;;21.79;100.00
5883;BME280;2967;51.488;6.618;2022-08-19T01:05:41;101007.66;;;21.45;100.00
5883;BME280;2967;51.488;6.618;2022-08-19T01:10:46;100989.69;;;20.61;100.00
5883;BME280;2967;51.488;6.618;2022-08-19T01:15:55;101001.50;;;21.68;100.00
5883;BME280;2967;51.488;6.618;2022-08-19T01:21:02;100987.03;;;21.20;100.00
5883;BME280;2967;51.488;6.618;2022-08-19T01:26:10;100979.97;;;21.19;100.00
5883;BME280;2967;51.488;6.618;2022-08-19T01:31:17;100971.47;;;21.40;100.00
5883;BME280;2967;51.488;6.618;2022-08-19T01:36:34;100954.09;;;21.34;100.00
5883;BME280;2967;51.488;6.618;2022-08-19T01:41:39;101000.75;;;21.58;100.00
5883;BME280;2967;51.488;6.618;2022-08-19T01:46:43;101001.53;;;21.76;100.00
5883;BME280;2967;51.488;6.618;2022-08-19T01:51:46;100991.75;;;21.67;100.00
5883;BME280;2967;51.488;6.618;2022-08-19T01:56:51;100903.63;;;21.28;100.00
5883;BME280;2967;51.488;6.618;2022-08-19T02:01:56;100949.94;;;21.48;100.00
5883;BME280;2967;51.488;6.618;2022-08-19T02:06:59;101026.63;;;21.77;100.00
5883;BME280;2967;51.488;6.618;2022-08-19T02:12:04;100976.31;;;20.95;100.00
5883;BME280;2967;51.488;6.618;2022-08-19T02:17:07;101013.53;;;21.07;100.00
5883;BME280;2967;51.488;6.618;2022-08-19T02:22:10;101004.66;;;21.15;100.00
5883;BME280;2967;51.488;6.618;2022-08-19T02:27:14;100997.16;;;21.34;100.00
5883;BME280;2967;51.488;6.618;2022-08-19T02:32:18;101026.63;;;21.02;100.00
5883;BME280;2967;51.488;6.618;2022-08-19T02:37:21;100939.81;;;20.92;100.00
5883;BME280;2967;51.488;6.618;2022-08-19T02:42:44;101009.91;;;21.66;100.00
5883;BME280;2967;51.488;6.618;2022-08-19T02:47:47;101003.47;;;21.51;100.00
5883;BME280;2967;51.488;6.618;2022-08-19T02:52:50;100990.88;;;19.98;100.00
5883;BME280;2967;51.488;6.618;2022-08-19T02:57:54;101018.53;;;21.02;100.00
5883;BME280;2967;51.488;6.618;2022-08-19T03:02:58;101029.47;;;21.01;100.00
5883;BME280;2967;51.488;6.618;2022-08-19T03:08:02;101010.44;;;21.28;100.00
5883;BME280;2967;51.488;6.618;2022-08-19T03:13:08;101035.28;;;21.55;100.00
5883;BME280;2967;51.488;6.618;2022-08-19T03:18:11;101044.88;;;21.24;100.00
5883;BME280;2967;51.488;6.618;2022-08-19T03:23:15;101044.81;;;21.42;100.00
5883;BME280;2967;51.488;6.618;2022-08-19T03:28:20;101010.44;;;21.28;100.00
5883;BME280;2967;51.488;6.618;2022-08-19T03:33:24;101021.06;;;21.37;100.00
5883;BME280;2967;51.488;6.618;2022-08-19T03:38:29;100967.38;;;21.20;100.00
5883;BME280;2967;51.488;6.618;2022-08-19T03:43:36;101013.59;;;21.15;100.00
5883;BME280;2967;51.488;6.618;2022-08-19T03:48:41;101016.91;;;21.51;100.00
5883;BME280;2967;51.488;6.618;2022-08-19T03:53:43;100979.09;;;21.11;100.00
5883;BME280;2967;51.488;6.618;2022-08-19T03:58:47;101023.69;;;21.21;100.00
5883;BME280;2967;51.488;6.618;2022-08-19T04:03:51;101005.38;;;21.25;100.00
5883;BME280;2967;51.488;6.618;2022-08-19T04:08:56;101024.38;;;20.72;100.00
5883;BME280;2967;51.488;6.618;2022-08-19T04:14:01;101022.47;;;20.39;100.00
5883;BME280;2967;51.488;6.618;2022-08-19T04:19:05;101019.59;;;20.84;100.00
5883;BME280;2967;51.488;6.618;2022-08-19T04:24:09;101016.56;;;21.12;100.00
5883;BME280;2967;51.488;6.618;2022-08-19T04:29:15;100956.69;;;20.77;100.00
5883;BME280;2967;51.488;6.618;2022-08-19T04:34:21;101003.94;;;21.05;100.00
5883;BME280;2967;51.488;6.618;2022-08-19T04:39:26;101018.38;;;20.53;100.00
5883;BME280;2967;51.488;6.618;2022-08-19T04:44:52;101018.31;;;20.70;100.00
5883;BME280;2967;51.488;6.618;2022-08-19T04:49:55;101016.50;;;20.10;100.00
5883;BME280;2967;51.488;6.618;2022-08-19T04:54:58;101036.38;;;21.03;100.00
5883;BME280;2967;51.488;6.618;2022-08-19T05:00:03;101037.81;;;21.15;100.00
5883;BME280;2967;51.488;6.618;2022-08-19T05:05:07;101025.69;;;20.86;100.00
5883;BME280;2967;51.488;6.618;2022-08-19T05:10:10;101047.41;;;20.92;100.00
5883;BME280;2967;51.488;6.618;2022-08-19T05:15:15;101063.00;;;20.89;100.00
5883;BME280;2967;51.488;6.618;2022-08-19T05:20:18;101067.31;;;20.82;100.00
5883;BME280;2967;51.488;6.618;2022-08-19T05:25:39;101074.00;;;20.95;100.00
5883;BME280;2967;51.488;6.618;2022-08-19T05:30:44;101071.22;;;20.62;100.00
5883;BME280;2967;51.488;6.618;2022-08-19T05:35:48;101073.81;;;20.54;100.00
5883;BME280;2967;51.488;6.618;2022-08-19T05:48:32;101058.78;;;20.43;100.00
5883;BME280;2967;51.488;6.618;2022-08-19T05:53:51;101060.94;;;20.05;100.00
5883;BME280;2967;51.488;6.618;2022-08-19T05:58:54;101072.38;;;20.07;100.00
5883;BME280;2967;51.488;6.618;2022-08-19T06:04:00;101070.31;;;20.36;100.00
5883;BME280;2967;51.488;6.618;2022-08-19T06:09:04;101078.69;;;20.76;100.00
5883;BME280;2967;51.488;6.618;2022-08-19T06:14:09;101042.34;;;20.46;100.00
5883;BME280;2967;51.488;6.618;2022-08-19T06:19:21;101085.41;;;20.72;100.00
5883;BME280;2967;51.488;6.618;2022-08-19T06:24:27;101080.28;;;21.04;100.00
5883;BME280;2967;51.488;6.618;2022-08-19T06:29:31;101081.94;;;21.05;100.00
5883;BME280;2967;51.488;6.618;2022-08-19T06:34:35;101069.25;;;20.89;100.00
5883;BME280;2967;51.488;6.618;2022-08-19T06:39:39;101089.75;;;21.16;100.00
5883;BME280;2967;51.488;6.618;2022-08-19T06:44:44;101070.31;;;20.96;100.00
5883;BME280;2967;51.488;6.618;2022-08-19T06:49:53;101079.13;;;21.14;100.00
5883;BME280;2967;51.488;6.618;2022-08-19T06:55:03;101075.91;;;21.36;100.00
5883;BME280;2967;51.488;6.618;2022-08-19T07:00:08;101046.59;;;21.25;100.00
5883;BME280;2967;51.488;6.618;2022-08-19T07:05:16;101095.78;;;21.76;100.00
5883;BME280;2967;51.488;6.618;2022-08-19T07:10:20;101097.88;;;21.90;100.00
5883;BME280;2967;51.488;6.618;2022-08-19T07:15:26;101101.06;;;21.94;100.00
5883;BME280;2967;51.488;6.618;2022-08-19T07:20:31;101101.91;;;21.94;100.00
5883;BME280;2967;51.488;6.618;2022-08-19T07:25:35;101095.47;;;21.87;100.00
5883;BME280;2967;51.488;6.618;2022-08-19T07:30:39;101113.22;;;22.14;100.00
5883;BME280;2967;51.488;6.618;2022-08-19T07:35:45;101059.47;;;21.96;100.00
5883;BME280;2967;51.488;6.618;2022-08-19T07:40:48;101130.34;;;22.46;100.00
5883;BME280;2967;51.488;6.618;2022-08-19T07:45:53;101129.28;;;22.39;100.00
5883;BME280;2967;51.488;6.618;2022-08-19T07:51:01;101133.84;;;22.39;100.00
5883;BME280;2967;51.488;6.618;2022-08-19T07:56:04;101149.56;;;22.59;100.00
5883;BME280;2967;51.488;6.618;2022-08-19T08:01:10;101135.91;;;22.69;100.00
5883;BME280;2967;51.488;6.618;2022-08-19T08:06:15;101129.66;;;22.68;100.00
5883;BME280;2967;51.488;6.618;2022-08-19T08:11:36;101146.88;;;22.91;100.00
5883;BME280;2967;51.488;6.618;2022-08-19T08:16:38;101103.72;;;22.43;100.00
5883;BME280;2967;51.488;6.618;2022-08-19T08:21:51;101142.50;;;22.74;100.00
5883;BME280;2967;51.488;6.618;2022-08-19T08:26:54;101146.22;;;22.73;100.00
5883;BME280;2967;51.488;6.618;2022-08-19T08:31:58;101167.63;;;22.91;100.00
5883;BME280;2967;51.488;6.618;2022-08-19T08:37:02;101158.50;;;22.92;100.00
5883;BME280;2967;51.488;6.618;2022-08-19T08:42:08;101137.94;;;22.83;100.00
5883;BME280;2967;51.488;6.618;2022-08-19T08:47:20;101182.97;;;23.22;100.00
5883;BME280;2967;51.488;6.618;2022-08-19T08:52:28;101162.06;;;23.24;100.00
5883;BME280;2967;51.488;6.618;2022-08-19T08:57:36;101141.13;;;23.10;100.00
5883;BME280;2967;51.488;6.618;2022-08-19T09:02:41;101153.97;;;23.16;100.00
5883;BME280;2967;51.488;6.618;2022-08-19T09:07:49;101119.53;;;23.18;100.00
5883;BME280;2967;51.488;6.618;2022-08-19T09:13:03;101147.53;;;23.33;100.00
5883;BME280;2967;51.488;6.618;2022-08-19T09:18:10;101165.91;;;23.46;100.00
5883;BME280;2967;51.488;6.618;2022-08-19T09:23:21;101129.97;;;23.29;100.00
5883;BME280;2967;51.488;6.618;2022-08-19T09:28:27;101105.03;;;23.19;100.00
5883;BME280;2967;51.488;6.618;2022-08-19T09:33:33;101160.28;;;23.55;100.00
5883;BME280;2967;51.488;6.618;2022-08-19T09:38:37;101161.97;;;23.56;100.00
5883;BME280;2967;51.488;6.618;2022-08-19T09:43:46;101156.44;;;23.50;100.00
5883;BME280;2967;51.488;6.618;2022-08-19T09:48:52;101119.66;;;23.33;100.00
5883;BME280;2967;51.488;6.618;2022-08-19T09:53:59;101161.28;;;23.70;100.00
5883;BME280;2967;51.488;6.618;2022-08-19T09:59:05;101146.41;;;23.66;100.00
5883;BME280;2967;51.488;6.618;2022-08-19T10:04:08;101157.19;;;23.74;100.00
5883;BME280;2967;51.488;6.618;2022-08-19T10:09:22;101165.06;;;23.84;100.00
5883;BME280;2967;51.488;6.618;2022-08-19T10:14:35;101140.84;;;23.68;100.00
5883;BME280;2967;51.488;6.618;2022-08-19T10:19:39;101159.03;;;23.90;100.00
5883;BME280;2967;51.488;6.618;2022-08-19T10:24:57;101144.09;;;24.02;98.45
5883;BME280;2967;51.488;6.618;2022-08-19T10:29:59;101137.63;;;24.11;97.37
5883;BME280;2967;51.488;6.618;2022-08-19T10:35:05;101104.56;;;24.01;97.19
5883;BME280;2967;51.488;6.618;2022-08-19T10:40:11;101140.25;;;24.27;97.18
5883;BME280;2967;51.488;6.618;2022-08-19T10:45:15;100992.34;;;23.52;96.33
5883;BME280;2967;51.488;6.618;2022-08-19T10:50:18;101123.34;;;24.47;94.84
5883;BME280;2967;51.488;6.618;2022-08-19T10:55:40;101117.13;;;24.47;94.21
5883;BME280;2967;51.488;6.618;2022-08-19T11:01:00;101130.84;;;24.67;94.53
5883;BME280;2967;51.488;6.618;2022-08-19T11:06:05;101111.91;;;24.67;91.48
5883;BME280;2967;51.488;6.618;2022-08-19T11:11:10;101126.38;;;24.74;92.27
5883;BME280;2967;51.488;6.618;2022-08-19T11:16:15;101116.06;;;24.56;91.86
5883;BME280;2967;51.488;6.618;2022-08-19T11:21:23;101120.47;;;24.49;91.36
5883;BME280;2967;51.488;6.618;2022-08-19T11:26:28;101111.53;;;24.70;90.78
5883;BME280;2967;51.488;6.618;2022-08-19T11:31:34;101127.59;;;24.72;89.03
5883;BME280;2967;51.488;6.618;2022-08-19T11:36:42;101121.22;;;24.65;88.72
5883;BME280;2967;51.488;6.618;2022-08-19T11:41:47;101124.81;;;24.80;86.56
5883;BME280;2967;51.488;6.618;2022-08-19T11:46:49;101130.84;;;25.04;86.58
5883;BME280;2967;51.488;6.618;2022-08-19T11:51:53;101124.75;;;25.25;86.05
5883;BME280;2967;51.488;6.618;2022-08-19T11:56:58;101108.75;;;25.30;83.60
5883;BME280;2967;51.488;6.618;2022-08-19T12:02:02;101116.16;;;25.36;84.19
5883;BME280;2967;51.488;6.618;2022-08-19T12:07:05;101086.84;;;25.25;80.37
5883;BME280;2967;51.488;6.618;2022-08-19T12:12:10;101010.97;;;24.96;78.91
5883;BME280;2967;51.488;6.618;2022-08-19T12:17:14;101112.22;;;25.82;78.53
5883;BME280;2967;51.488;6.618;2022-08-19T12:22:17;101109.88;;;25.93;76.55
5883;BME280;2967;51.488;6.618;2022-08-19T12:27:24;101105.44;;;26.07;77.31
5883;BME280;2967;51.488;6.618;2022-08-19T12:32:41;101047.91;;;25.90;79.58
5883;BME280;2967;51.488;6.618;2022-08-19T12:37:44;101049.94;;;26.03;79.84
5883;BME280;2967;51.488;6.618;2022-08-19T12:42:59;101106.63;;;26.40;77.75
5883;BME280;2967;51.488;6.618;2022-08-19T12:48:02;101039.72;;;26.05;75.79
5883;BME280;2967;51.488;6.618;2022-08-19T12:53:25;101099.31;;;26.55;75.20
5883;BME280;2967;51.488;6.618;2022-08-19T12:58:31;101101.16;;;26.75;73.87
5883;BME280;2967;51.488;6.618;2022-08-19T13:03:36;101009.38;;;26.37;75.19
5883;BME280;2967;51.488;6.618;2022-08-19T13:08:44;101007.56;;;26.44;72.49
5883;BME280;2967;51.488;6.618;2022-08-19T13:13:51;101032.13;;;26.57;71.65
5883;BME280;2967;51.488;6.618;2022-08-19T13:18:57;101085.69;;;26.97;70.50
5883;BME280;2967;51.488;6.618;2022-08-19T13:24:00;101094.78;;;27.10;71.53
5883;BME280;2967;51.488;6.618;2022-08-19T13:29:04;101011.34;;;26.70;74.45
5883;BME280;2967;51.488;6.618;2022-08-19T13:34:31;101089.50;;;27.30;76.44
5883;BME280;2967;51.488;6.618;2022-08-19T13:39:35;101076.66;;;27.51;76.86
5883;BME280;2967;51.488;6.618;2022-08-19T13:44:41;101076.69;;;27.58;77.76
5883;BME280;2967;51.488;6.618;2022-08-19T13:49:44;101067.53;;;27.65;77.81
5883;BME280;2967;51.488;6.618;2022-08-19T13:54:47;101061.97;;;27.79;75.00
5883;BME280;2967;51.488;6.618;2022-08-19T13:59:56;100868.03;;;26.53;73.22
5883;BME280;2967;51.488;6.618;2022-08-19T14:04:59;101063.44;;;27.75;73.97
5883;BME280;2967;51.488;6.618;2022-08-19T14:10:03;101060.09;;;27.73;73.03
5883;BME280;2967;51.488;6.618;2022-08-19T14:15:09;101063.69;;;27.87;72.13
5883;BME280;2967;51.488;6.618;2022-08-19T14:20:13;101060.53;;;27.77;68.09
5883;BME280;2967;51.488;6.618;2022-08-19T14:25:21;101057.41;;;27.93;67.63
5883;BME280;2967;51.488;6.618;2022-08-19T14:30:27;100992.22;;;27.53;67.66
5883;BME280;2967;51.488;6.618;2022-08-19T14:35:33;101063.53;;;28.08;65.19
5883;BME280;2967;51.488;6.618;2022-08-19T14:40:36;101048.88;;;27.96;66.93
5883;BME280;2967;51.488;6.618;2022-08-19T14:45:40;101045.47;;;27.87;69.45
5883;BME280;2967;51.488;6.618;2022-08-19T14:50:44;101047.22;;;28.01;69.04
5883;BME280;2967;51.488;6.618;2022-08-19T14:55:47;101055.47;;;27.80;68.77
5883;BME280;2967;51.488;6.618;2022-08-19T15:00:51;101030.13;;;27.27;69.09
5883;BME280;2967;51.488;6.618;2022-08-19T15:05:53;101039.25;;;27.13;70.10
5883;BME280;2967;51.488;6.618;2022-08-19T15:10:57;101049.97;;;27.00;71.81
5883;BME280;2967;51.488;6.618;2022-08-19T15:16:02;101051.84;;;26.93;71.58
5883;BME280;2967;51.488;6.618;2022-08-19T15:21:19;101076.81;;;26.82;72.69
5883;BME280;2967;51.488;6.618;2022-08-19T15:26:28;101076.03;;;26.67;74.26
5883;BME280;2967;51.488;6.618;2022-08-19T15:31:35;101077.59;;;26.76;74.90
5883;BME280;2967;51.488;6.618;2022-08-19T15:36:39;101043.41;;;26.39;75.21
5883;BME280;2967;51.488;6.618;2022-08-19T15:41:42;101089.81;;;26.65;76.98
5883;BME280;2967;51.488;6.618;2022-08-19T15:46:47;101095.63;;;26.62;78.21
5883;BME280;2967;51.488;6.618;2022-08-19T15:51:50;101103.31;;;26.59;78.94
5883;BME280;2967;51.488;6.618;2022-08-19T15:56:54;101097.50;;;26.41;79.99
5883;BME280;2967;51.488;6.618;2022-08-19T16:02:16;101094.31;;;26.37;79.76
5883;BME280;2967;51.488;6.618;2022-08-19T16:07:38;101083.41;;;26.31;78.41
5883;BME280;2967;51.488;6.618;2022-08-19T16:12:40;101018.47;;;25.87;79.95
5883;BME280;2967;51.488;6.618;2022-08-19T16:17:44;101088.75;;;26.24;79.27
5883;BME280;2967;51.488;6.618;2022-08-19T16:22:58;101095.28;;;26.30;79.51
5883;BME280;2967;51.488;6.618;2022-08-19T16:28:04;101086.53;;;26.13;81.23
5883;BME280;2967;51.488;6.618;2022-08-19T16:33:10;101091.06;;;26.06;81.48
5883;BME280;2967;51.488;6.618;2022-08-19T16:38:23;101096.75;;;26.11;83.08
5883;BME280;2967;51.488;6.618;2022-08-19T16:43:28;101094.78;;;26.05;85.40
5883;BME280;2967;51.488;6.618;2022-08-19T16:48:37;101030.72;;;25.69;86.19
5883;BME280;2967;51.488;6.618;2022-08-19T16:53:44;101047.28;;;25.74;86.90
5883;BME280;2967;51.488;6.618;2022-08-19T16:58:47;101104.81;;;26.05;85.38
5883;BME280;2967;51.488;6.618;2022-08-19T17:03:52;101099.50;;;25.97;87.08
5883;BME280;2967;51.488;6.618;2022-08-19T17:08:58;101092.56;;;25.80;86.73
5883;BME280;2967;51.488;6.618;2022-08-19T17:14:04;101105.31;;;25.79;88.45
5883;BME280;2967;51.488;6.618;2022-08-19T17:19:12;101103.22;;;25.81;88.91
5883;BME280;2967;51.488;6.618;2022-08-19T17:24:17;101095.66;;;25.77;90.02
5883;BME280;2967;51.488;6.618;2022-08-19T17:29:20;101057.84;;;25.40;90.13
5883;BME280;2967;51.488;6.618;2022-08-19T17:34:25;101092.41;;;25.67;91.52
5883;BME280;2967;51.488;6.618;2022-08-19T17:39:28;101093.94;;;25.55;93.22
5883;BME280;2967;51.488;6.618;2022-08-19T17:44:39;101095.69;;;25.48;94.44
5883;BME280;2967;51.488;6.618;2022-08-19T17:49:46;101092.34;;;25.46;95.18
5883;BME280;2967;51.488;6.618;2022-08-19T17:54:49;101092.16;;;25.33;95.72
5883;BME280;2967;51.488;6.618;2022-08-19T17:59:56;101039.72;;;24.97;95.82
5883;BME280;2967;51.488;6.618;2022-08-19T18:05:13;101085.31;;;25.22;96.45
5883;BME280;2967;51.488;6.618;2022-08-19T18:10:16;101092.84;;;25.12;96.92
5883;BME280;2967;51.488;6.618;2022-08-19T18:15:21;101104.88;;;25.10;97.25
5883;BME280;2967;51.488;6.618;2022-08-19T18:20:30;101078.72;;;24.88;96.81
5883;BME280;2967;51.488;6.618;2022-08-19T18:25:33;101092.69;;;24.77;96.73
5883;BME280;2967;51.488;6.618;2022-08-19T18:30:35;101113.31;;;24.78;96.88
5883;BME280;2967;51.488;6.618;2022-08-19T18:35:41;101118.44;;;24.73;97.62
5883;BME280;2967;51.488;6.618;2022-08-19T18:40:46;101055.50;;;24.34;98.56
5883;BME280;2967;51.488;6.618;2022-08-19T18:46:06;101096.94;;;24.49;99.17
5883;BME280;2967;51.488;6.618;2022-08-19T18:51:33;101131.00;;;24.66;99.46
5883;BME280;2967;51.488;6.618;2022-08-19T18:56:35;101127.13;;;24.38;100.00
5883;BME280;2967;51.488;6.618;2022-08-19T19:01:45;101149.09;;;24.43;100.00
5883;BME280;2967;51.488;6.618;2022-08-19T19:06:52;101127.38;;;24.29;100.00
5883;BME280;2967;51.488;6.618;2022-08-19T19:11:57;101134.63;;;24.28;100.00
5883;BME280;2967;51.488;6.618;2022-08-19T19:17:05;101152.22;;;24.32;100.00
5883;BME280;2967;51.488;6.618;2022-08-19T19:22:13;101112.50;;;24.02;100.00
5883;BME280;2967;51.488;6.618;2022-08-19T19:27:18;101102.22;;;23.98;100.00
5883;BME280;2967;51.488;6.618;2022-08-19T19:32:24;101134.25;;;24.09;100.00
5883;BME280;2967;51.488;6.618;2022-08-19T19:37:29;101078.47;;;23.77;100.00
5883;BME280;2967;51.488;6.618;2022-08-19T19:42:32;101169.00;;;24.20;100.00
5883;BME280;2967;51.488;6.618;2022-08-19T19:47:35;101156.50;;;24.19;100.00
5883;BME280;2967;51.488;6.618;2022-08-19T19:52:40;101165.81;;;24.16;100.00
5883;BME280;2967;51.488;6.618;2022-08-19T19:57:47;101175.31;;;24.12;100.00
5883;BME280;2967;51.488;6.618;2022-08-19T20:02:50;101165.84;;;24.08;100.00
5883;BME280;2967;51.488;6.618;2022-08-19T20:07:55;101157.44;;;24.03;100.00
5883;BME280;2967;51.488;6.618;2022-08-19T20:13:15;101146.28;;;23.98;100.00
5883;BME280;2967;51.488;6.618;2022-08-19T20:18:18;101175.16;;;24.06;100.00
5883;BME280;2967;51.488;6.618;2022-08-19T20:23:25;101171.47;;;23.99;100.00
5883;BME280;2967;51.488;6.618;2022-08-19T20:28:28;101171.66;;;23.89;100.00
5883;BME280;2967;51.488;6.618;2022-08-19T20:33:32;101179.75;;;23.97;100.00
5883;BME280;2967;51.488;6.618;2022-08-19T20:38:37;101178.66;;;24.14;100.00
5883;BME280;2967;51.488;6.618;2022-08-19T20:43:42;101172.00;;;23.94;100.00
5883;BME280;2967;51.488;6.618;2022-08-19T20:48:45;101171.50;;;23.91;100.00
5883;BME280;2967;51.488;6.618;2022-08-19T20:53:51;101189.38;;;24.00;100.00
5883;BME280;2967;51.488;6.618;2022-08-19T20:58:58;101201.72;;;23.94;100.00
5883;BME280;2967;51.488;6.618;2022-08-19T21:04:04;101205.66;;;23.76;100.00
5883;BME280;2967;51.488;6.618;2022-08-19T21:09:09;101181.03;;;23.55;100.00
5883;BME280;2967;51.488;6.618;2022-08-19T21:14:11;101203.13;;;23.66;100.00
5883;BME280;2967;51.488;6.618;2022-08-19T21:19:14;101163.53;;;23.43;100.00
5883;BME280;2967;51.488;6.618;2022-08-19T21:24:24;101085.50;;;22.77;100.00
5883;BME280;2967;51.488;6.618;2022-08-19T21:29:32;101213.66;;;23.37;100.00
5883;BME280;2967;51.488;6.618;2022-08-19T21:34:38;101211.16;;;23.20;100.00
5883;BME280;2967;51.488;6.618;2022-08-19T21:39:42;101203.22;;;23.18;100.00
5883;BME280;2967;51.488;6.618;2022-08-19T21:44:45;101180.91;;;23.08;100.00
5883;BME280;2967;51.488;6.618;2022-08-19T21:49:48;101172.00;;;23.00;100.00
5883;BME280;2967;51.488;6.618;2022-08-19T21:54:54;101203.38;;;23.09;100.00
5883;BME280;2967;51.488;6.618;2022-08-19T21:59:58;101208.41;;;23.12;100.00
5883;BME280;2967;51.488;6.618;2022-08-19T22:05:06;101160.38;;;22.83;100.00
5883;BME280;2967;51.488;6.618;2022-08-19T22:10:11;101211.28;;;22.86;100.00
5883;BME280;2967;51.488;6.618;2022-08-19T22:15:14;101208.59;;;22.94;100.00
5883;BME280;2967;51.488;6.618;2022-08-19T22:20:22;101171.66;;;22.79;100.00
5883;BME280;2967;51.488;6.618;2022-08-19T22:25:29;101204.53;;;22.98;100.00
5883;BME280;2967;51.488;6.618;2022-08-19T22:30:38;101161.19;;;22.84;100.00
5883;BME280;2967;51.488;6.618;2022-08-19T22:35:45;101214.69;;;23.12;100.00
5883;BME280;2967;51.488;6.618;2022-08-19T22:41:02;101223.59;;;23.13;100.00
5883;BME280;2967;51.488;6.618;2022-08-19T22:46:07;101211.47;;;23.01;100.00
5883;BME280;2967;51.488;6.618;2022-08-19T22:51:27;101229.00;;;23.05;100.00
5883;BME280;2967;51.488;6.618;2022-08-19T22:56:48;101211.47;;;23.01;100.00
5883;BME280;2967;51.488;6.618;2022-08-19T23:01:52;101228.81;;;22.98;100.00
5883;BME280;2967;51.488;6.618;2022-08-19T23:06:55;101226.28;;;22.81;100.00
5883;BME280;2967;51.488;6.618;2022-08-19T23:11:59;101174.22;;;22.80;100.00
5883;BME280;2967;51.488;6.618;2022-08-19T23:17:02;101233.06;;;22.85;100.00
5883;BME280;2967;51.488;6.618;2022-08-19T23:22:05;101188.00;;;22.61;100.00
5883;BME280;2967;51.488;6.618;2022-08-19T23:27:10;101202.50;;;22.60;100.00
5883;BME280;2967;51.488;6.618;2022-08-19T23:32:33;101241.66;;;22.80;100.00
5883;BME280;2967;51.488;6.618;2022-08-19T23:37:36;101220.06;;;22.72;100.00
5883;BME280;2967;51.488;6.618;2022-08-19T23:42:41;101243.31;;;22.73;100.00
5883;BME280;2967;51.488;6.618;2022-08-19T23:47:46;101222.72;;;22.64;100.00
5883;BME280;2967;51.488;6.618;2022-08-19T23:52:51;101215.97;;;22.68;100.00
5883;BME280;2967;51.488;6.618;2022-08-19T23:57:56;101176.53;;;22.59;100.00
